createdAt,value
2022-10-07T00:03:08.765Z,13.27
2022-10-07T00:07:11.916Z,13.22
2022-10-07T00:11:18.061Z,13.15
2022-10-07T00:15:20.998Z,13.10
2022-10-07T00:19:24.175Z,13.04
2022-10-07T00:23:27.164Z,12.99
2022-10-07T00:27:31.745Z,12.94
2022-10-07T00:31:36.933Z,12.92
2022-10-07T00:35:39.946Z,12.87
2022-10-07T00:39:43.147Z,12.83
2022-10-07T00:43:47.922Z,12.82
2022-10-07T00:47:52.160Z,12.77
2022-10-07T00:51:55.388Z,12.69
2022-10-07T00:56:01.795Z,12.65
2022-10-07T01:00:08.525Z,12.65
2022-10-07T01:04:14.632Z,12.65
2022-10-07T01:08:18.020Z,12.65
2022-10-07T01:12:28.924Z,12.65
2022-10-07T01:16:40.902Z,12.62
2022-10-07T01:20:52.768Z,12.61
2022-10-07T01:25:12.609Z,12.58
2022-10-07T01:29:21.622Z,12.57
2022-10-07T01:33:29.367Z,12.54
2022-10-07T01:37:39.184Z,12.54
2022-10-07T01:41:42.802Z,12.53
2022-10-07T01:45:48.048Z,12.50
2022-10-07T01:49:51.267Z,12.49
2022-10-07T01:54:02.406Z,12.44
2022-10-07T01:58:22.213Z,12.40
2022-10-07T02:02:36.274Z,12.37
2022-10-07T02:06:49.703Z,12.35
2022-10-07T02:11:05.931Z,12.31
2022-10-07T02:15:15.579Z,12.30
2022-10-07T02:19:24.253Z,12.27
2022-10-07T02:23:29.015Z,12.24
2022-10-07T02:27:36.626Z,12.20
2022-10-07T02:31:41.796Z,12.15
2022-10-07T02:35:50.832Z,12.11
2022-10-07T02:39:55.257Z,12.10
2022-10-07T02:44:05.155Z,12.07
2022-10-07T02:48:18.291Z,12.03
2022-10-07T02:52:24.709Z,12.00
2022-10-07T02:56:29.303Z,11.97
2022-10-07T03:00:36.593Z,11.92
2022-10-07T03:04:40.053Z,11.89
2022-10-07T03:08:45.201Z,11.86
2022-10-07T03:12:48.791Z,11.82
2022-10-07T03:16:52.083Z,11.77
2022-10-07T03:20:56.400Z,11.73
2022-10-07T03:25:00.896Z,11.71
2022-10-07T03:29:05.441Z,11.68
2022-10-07T03:33:08.738Z,11.63
2022-10-07T03:37:12.492Z,11.60
2022-10-07T03:41:17.002Z,11.55
2022-10-07T03:45:20.940Z,11.54
2022-10-07T03:49:24.180Z,11.53
2022-10-07T03:53:29.654Z,11.48
2022-10-07T03:57:58.385Z,11.43
2022-10-07T04:02:04.115Z,11.39
2022-10-07T04:06:07.935Z,11.37
2022-10-07T04:10:12.274Z,11.33
2022-10-07T04:14:18.405Z,11.31
2022-10-07T04:18:21.695Z,11.28
2022-10-07T04:22:25.404Z,11.25
2022-10-07T04:26:28.568Z,11.24
2022-10-07T04:30:39.314Z,11.22
2022-10-07T04:34:42.679Z,11.21
2022-10-07T04:38:50.902Z,11.19
2022-10-07T04:43:15.405Z,11.22
2022-10-07T04:47:20.024Z,11.24
2022-10-07T04:51:23.819Z,11.27
2022-10-07T04:55:30.184Z,11.28
2022-10-07T04:59:34.475Z,11.27
2022-10-07T05:03:41.100Z,11.28
2022-10-07T05:07:51.108Z,11.26
2022-10-07T05:11:56.379Z,11.25
2022-10-07T05:16:01.555Z,11.24
2022-10-07T05:20:07.607Z,11.25
2022-10-07T05:24:11.067Z,11.24
2022-10-07T05:28:16.697Z,11.21
2022-10-07T05:32:21.163Z,11.18
2022-10-07T05:36:25.783Z,11.17
2022-10-07T05:40:31.567Z,11.14
2022-10-07T05:44:37.841Z,11.12
2022-10-07T05:48:46.090Z,11.13
2022-10-07T05:52:52.051Z,11.13
2022-10-07T05:56:55.267Z,11.14
2022-10-07T06:01:05.369Z,11.10
2022-10-07T06:05:10.772Z,11.06
2022-10-07T06:09:33.511Z,11.06
2022-10-07T06:13:41.801Z,11.10
2022-10-07T06:17:45.852Z,11.12
2022-10-07T06:21:53.894Z,11.12
2022-10-07T06:26:00.367Z,11.16
2022-10-07T06:30:05.659Z,11.25
2022-10-07T06:34:09.131Z,11.30
2022-10-07T06:38:13.794Z,11.38
2022-10-07T06:42:18.880Z,11.47
2022-10-07T06:46:40.142Z,11.56
2022-10-07T06:50:51.522Z,11.71
2022-10-07T06:54:55.628Z,11.83
2022-10-07T06:59:03.285Z,11.95
2022-10-07T07:03:19.095Z,12.00
2022-10-07T07:07:24.230Z,12.03
2022-10-07T07:11:43.483Z,12.13
2022-10-07T07:16:00.966Z,12.24
2022-10-07T07:20:09.047Z,12.35
2022-10-07T07:24:12.572Z,12.46
2022-10-07T07:28:16.779Z,12.58
2022-10-07T07:32:22.744Z,12.71
2022-10-07T07:36:26.994Z,12.82
2022-10-07T07:40:30.645Z,12.92
2022-10-07T07:44:36.923Z,13.02
2022-10-07T07:48:44.035Z,13.12
2022-10-07T07:52:47.938Z,13.23
2022-10-07T07:56:51.247Z,13.33
2022-10-07T08:01:01.049Z,13.44
2022-10-07T08:05:07.004Z,13.58
2022-10-07T08:09:10.291Z,13.73
2022-10-07T08:13:14.430Z,13.86
2022-10-07T08:17:17.611Z,14.01
2022-10-07T08:21:26.799Z,14.17
2022-10-07T08:25:33.601Z,14.31
2022-10-07T08:29:40.156Z,14.49
2022-10-07T08:33:45.618Z,14.62
2022-10-07T08:37:50.021Z,14.74
2022-10-07T08:42:05.143Z,14.87
2022-10-07T08:46:13.464Z,15.00
2022-10-07T08:50:20.255Z,15.16
2022-10-07T08:54:29.177Z,15.31
2022-10-07T08:58:44.115Z,15.43
2022-10-07T09:03:03.013Z,15.59
2022-10-07T09:07:11.426Z,15.70
2022-10-07T09:11:25.677Z,15.86
2022-10-07T09:15:41.158Z,16.00
2022-10-07T09:19:48.300Z,16.17
2022-10-07T09:23:56.713Z,16.19
2022-10-07T09:28:01.469Z,16.28
2022-10-07T09:32:04.562Z,16.35
2022-10-07T09:36:11.465Z,16.38
2022-10-07T09:40:21.937Z,16.46
2022-10-07T09:44:28.383Z,16.54
2022-10-07T09:48:35.073Z,16.61
2022-10-07T09:52:38.148Z,16.63
2022-10-07T09:56:43.262Z,16.70
2022-10-07T10:00:49.575Z,16.76
2022-10-07T10:04:54.481Z,16.83
2022-10-07T10:08:58.030Z,16.88
2022-10-07T10:13:02.866Z,17.01
2022-10-07T10:17:16.998Z,17.21
2022-10-07T10:21:30.280Z,17.36
2022-10-07T10:26:00.116Z,17.51
2022-10-07T10:30:06.729Z,17.60
2022-10-07T10:34:25.356Z,17.71
2022-10-07T10:38:41.354Z,17.78
2022-10-07T10:42:51.565Z,17.84
2022-10-07T10:47:01.225Z,17.92
2022-10-07T10:51:23.968Z,18.02
2022-10-07T10:55:40.479Z,18.10
2022-10-07T11:00:05.229Z,18.22
2022-10-07T11:04:29.588Z,18.28
2022-10-07T11:08:38.579Z,18.43
2022-10-07T11:12:46.663Z,18.51
2022-10-07T11:16:55.345Z,18.55
2022-10-07T11:21:00.706Z,18.57
2022-10-07T11:25:18.859Z,18.62
2022-10-07T11:29:37.874Z,18.69
2022-10-07T11:33:48.710Z,18.73
2022-10-07T11:37:58.771Z,18.77
2022-10-07T11:42:09.198Z,18.83
2022-10-07T11:46:19.410Z,18.89
2022-10-07T11:50:27.653Z,18.96
2022-10-07T11:54:38.782Z,18.97
2022-10-07T11:58:44.642Z,19.05
2022-10-07T12:02:48.846Z,19.09
2022-10-07T12:07:29.662Z,19.10
2022-10-07T12:11:48.632Z,19.14
2022-10-07T12:15:53.431Z,19.17
2022-10-07T12:20:47.828Z,19.21
2022-10-07T12:25:24.435Z,19.28
2022-10-07T12:29:34.146Z,19.35
2022-10-07T12:33:43.059Z,19.40
2022-10-07T12:37:50.304Z,19.36
2022-10-07T12:41:54.841Z,19.40
2022-10-07T12:45:59.654Z,19.38
2022-10-07T12:50:11.293Z,19.37
2022-10-07T12:54:20.085Z,19.40
2022-10-07T12:59:16.519Z,19.43
2022-10-07T13:03:53.134Z,19.45
2022-10-07T13:08:18.887Z,19.42
2022-10-07T13:12:35.941Z,19.47
2022-10-07T13:16:46.174Z,19.51
2022-10-07T13:21:08.943Z,19.49
2022-10-07T13:25:15.303Z,19.51
2022-10-07T13:29:24.259Z,19.54
2022-10-07T13:33:31.319Z,19.55
2022-10-07T13:37:36.562Z,19.52
2022-10-07T13:41:45.258Z,19.53
2022-10-07T13:45:48.551Z,19.53
2022-10-07T13:49:54.960Z,19.52
2022-10-07T13:54:00.371Z,19.48
2022-10-07T13:58:06.677Z,19.44
2022-10-07T14:02:15.850Z,19.41
2022-10-07T14:06:37.975Z,19.43
2022-10-07T14:10:52.738Z,19.41
2022-10-07T14:15:03.170Z,19.40
2022-10-07T14:19:07.263Z,19.38
2022-10-07T14:23:21.678Z,19.35
2022-10-07T14:27:42.751Z,19.32
2022-10-07T14:32:04.935Z,19.28
2022-10-07T14:36:13.982Z,19.24
2022-10-07T14:40:23.265Z,19.23
2022-10-07T14:44:26.885Z,19.19
2022-10-07T14:48:31.274Z,19.15
2022-10-07T14:52:44.321Z,19.12
2022-10-07T14:56:47.951Z,19.11
2022-10-07T15:00:51.988Z,19.10
2022-10-07T15:04:56.416Z,19.08
2022-10-07T15:09:00.370Z,19.06
2022-10-07T15:13:09.757Z,19.05
2022-10-07T15:17:15.943Z,19.02
2022-10-07T15:21:21.051Z,18.99
2022-10-07T15:25:24.118Z,18.97
2022-10-07T15:29:27.392Z,18.94
2022-10-07T15:33:31.012Z,18.92
2022-10-07T15:37:35.412Z,18.87
2022-10-07T15:41:40.190Z,18.84
2022-10-07T15:45:46.344Z,18.78
2022-10-07T15:49:50.220Z,18.68
2022-10-07T15:53:55.234Z,18.63
2022-10-07T15:57:59.043Z,18.57
2022-10-07T16:02:02.122Z,18.51
2022-10-07T16:06:08.558Z,18.48
2022-10-07T16:10:13.405Z,18.43
2022-10-07T16:14:17.322Z,18.34
2022-10-07T16:18:20.558Z,18.28
2022-10-07T16:22:23.725Z,18.23
2022-10-07T16:26:30.185Z,18.15
2022-10-07T16:30:42.796Z,18.08
2022-10-07T16:34:46.993Z,17.98
2022-10-07T16:38:51.063Z,17.91
2022-10-07T16:42:55.852Z,17.84
2022-10-07T16:46:59.517Z,17.75
2022-10-07T16:51:03.377Z,17.68
2022-10-07T16:55:07.551Z,17.63
2022-10-07T16:59:16.466Z,17.60
2022-10-07T17:03:22.869Z,17.51
2022-10-07T17:07:26.157Z,17.45
2022-10-07T17:11:32.024Z,17.40
2022-10-07T17:15:40.458Z,17.31
2022-10-07T17:19:43.633Z,17.24
2022-10-07T17:23:46.780Z,17.17
2022-10-07T17:27:50.275Z,17.11
2022-10-07T17:31:55.064Z,17.07
2022-10-07T17:36:04.239Z,17.01
2022-10-07T17:40:08.727Z,16.96
2022-10-07T17:44:13.603Z,16.95
2022-10-07T17:48:23.449Z,16.91
2022-10-07T17:52:27.690Z,16.87
2022-10-07T17:56:32.199Z,16.84
2022-10-07T18:00:35.311Z,16.78
2022-10-07T18:04:40.079Z,16.75
2022-10-07T18:08:43.633Z,16.67
2022-10-07T18:13:04.059Z,16.63
2022-10-07T18:17:08.884Z,16.58
2022-10-07T18:21:13.666Z,16.52
2022-10-07T18:25:17.067Z,16.49
2022-10-07T18:29:20.118Z,16.44
2022-10-07T18:33:23.270Z,16.38
2022-10-07T18:37:27.900Z,16.33
2022-10-07T18:41:30.955Z,16.30
2022-10-07T18:45:34.172Z,16.23
2022-10-07T18:49:37.281Z,16.18
2022-10-07T18:53:43.179Z,16.14
2022-10-07T18:57:46.495Z,16.11
2022-10-07T19:01:51.115Z,16.09
2022-10-07T19:05:54.371Z,16.03
2022-10-07T19:09:59.181Z,15.98
2022-10-07T19:14:02.723Z,15.95
2022-10-07T19:18:07.208Z,15.91
2022-10-07T19:22:10.894Z,15.88
2022-10-07T19:26:20.939Z,15.84
2022-10-07T19:30:24.744Z,15.80
2022-10-07T19:34:27.760Z,15.75
2022-10-07T19:38:31.501Z,15.71
2022-10-07T19:42:37.795Z,15.66
2022-10-07T19:46:41.484Z,15.62
2022-10-07T19:50:46.127Z,15.57
2022-10-07T19:54:49.973Z,15.56
2022-10-07T19:58:56.333Z,15.50
2022-10-07T20:03:01.233Z,15.48
2022-10-07T20:07:04.527Z,15.45
2022-10-07T20:11:09.397Z,15.44
2022-10-07T20:15:15.418Z,15.38
2022-10-07T20:19:19.613Z,15.34
2022-10-07T20:23:22.806Z,15.28
2022-10-07T20:27:26.172Z,15.23
2022-10-07T20:31:33.289Z,15.21
2022-10-07T20:35:36.315Z,15.17
2022-10-07T20:39:56.695Z,15.14
2022-10-07T20:43:59.906Z,15.10
2022-10-07T20:48:05.820Z,15.07
2022-10-07T20:52:13.147Z,15.02
2022-10-07T20:56:16.464Z,14.98
2022-10-07T21:00:19.567Z,14.92
2022-10-07T21:04:28.460Z,14.86
2022-10-07T21:08:32.350Z,14.84
2022-10-07T21:12:35.638Z,14.81
2022-10-07T21:16:38.660Z,14.76
2022-10-07T21:20:56.543Z,14.70
2022-10-07T21:25:00.305Z,14.66
2022-10-07T21:29:03.691Z,14.59
2022-10-07T21:33:06.802Z,14.57
2022-10-07T21:37:11.405Z,14.54
2022-10-07T21:41:16.755Z,14.53
2022-10-07T21:45:19.956Z,14.54
2022-10-07T21:49:23.426Z,14.49
2022-10-07T21:53:28.930Z,14.45
2022-10-07T21:57:32.494Z,14.41
2022-10-07T22:01:38.190Z,14.38
2022-10-07T22:05:41.853Z,14.36
2022-10-07T22:09:46.240Z,14.32
2022-10-07T22:13:51.775Z,14.24
2022-10-07T22:17:55.796Z,14.18
2022-10-07T22:21:59.021Z,14.14
2022-10-07T22:26:05.370Z,14.10
2022-10-07T22:30:10.694Z,14.06
2022-10-07T22:34:34.685Z,14.04
2022-10-07T22:38:38.242Z,14.00
2022-10-07T22:42:46.070Z,13.99
2022-10-07T22:46:49.470Z,13.99
2022-10-07T22:50:52.947Z,13.95
2022-10-07T22:54:56.129Z,13.93
2022-10-07T22:59:01.112Z,13.90
2022-10-07T23:03:04.394Z,13.88
2022-10-07T23:07:07.560Z,13.84
2022-10-07T23:11:16.541Z,13.81
2022-10-07T23:15:21.225Z,13.78
2022-10-07T23:19:24.344Z,13.75
2022-10-07T23:23:27.807Z,13.70
2022-10-07T23:27:30.846Z,13.66
2022-10-07T23:31:35.314Z,13.62
2022-10-07T23:35:38.577Z,13.56
2022-10-07T23:39:41.779Z,13.49
2022-10-07T23:43:45.001Z,13.43
2022-10-07T23:47:49.347Z,13.36
2022-10-07T23:51:52.594Z,13.30
2022-10-07T23:55:55.791Z,13.24
2022-10-07T23:59:58.871Z,13.16
